Time;durP1;ratioP1;P1;durP2;ratioP2;P2;SDS_P1;SDS_P2;PMS_P1;PMS_P2;Temp;Humidity;BMP_temperature;BMP_pressure;BME280_temperature;BME280_humidity;BME280_pressure;Samples;Min_cycle;Max_cycle;Signal;HPM_P1;HPM_P2
2021/01/31 00:02:33;;;;;;;11.47;10.70;;;6.00;99.90;;;;;;10446284;28;20671;-79
2021/01/31 00:07:34;;;;;;;12.40;11.50;;;5.90;99.90;;;;;;10444565;28;20225;-80
2021/01/31 00:12:36;;;;;;;12.70;11.80;;;5.90;99.90;;;;;;10431416;28;20235;-79
2021/01/31 00:17:39;;;;;;;11.20;10.50;;;5.90;99.90;;;;;;10446840;28;20229;-78
2021/01/31 00:22:40;;;;;;;12.10;11.30;;;5.90;99.90;;;;;;10448966;28;20235;-79
2021/01/31 00:27:42;;;;;;;13.67;12.60;;;5.90;99.90;;;;;;10448866;28;20959;-79
2021/01/31 00:32:45;;;;;;;11.90;11.10;;;5.90;99.90;;;;;;10450172;28;20208;-78
2021/01/31 00:37:46;;;;;;;14.10;13.10;;;5.90;99.90;;;;;;10447487;28;20209;-79
2021/01/31 00:42:48;;;;;;;13.87;12.90;;;5.90;99.90;;;;;;10448647;28;20205;-79
2021/01/31 00:47:51;;;;;;;13.63;12.63;;;5.90;99.90;;;;;;10456409;28;20229;-78
2021/01/31 00:52:53;;;;;;;13.80;12.80;;;6.00;99.90;;;;;;10446166;28;20201;-78
2021/01/31 00:57:55;;;;;;;13.73;12.73;;;6.00;99.90;;;;;;10449689;28;20601;-80
2021/01/31 01:03:00;;;;;;;13.17;12.20;;;5.90;99.90;;;;;;10445722;28;20262;-80
2021/01/31 01:08:22;;;;;;;12.37;11.47;;;5.90;99.90;;;;;;10438673;28;20704;-80
2021/01/31 01:13:23;;;;;;;13.00;12.00;;;5.80;99.90;;;;;;10433336;28;20567;-79
2021/01/31 01:18:26;;;;;;;13.23;12.30;;;5.80;99.90;;;;;;10448411;28;20547;-80
2021/01/31 01:23:28;;;;;;;14.03;13.03;;;5.70;99.90;;;;;;10448851;28;20197;-80
2021/01/31 01:28:29;;;;;;;13.27;12.37;;;5.70;99.90;;;;;;10447835;28;20229;-79
2021/01/31 01:33:32;;;;;;;13.60;12.60;;;5.70;99.90;;;;;;10453903;28;20231;-79
2021/01/31 01:38:33;;;;;;;14.73;13.63;;;5.70;99.90;;;;;;10450438;28;20225;-79
2021/01/31 01:43:35;;;;;;;14.27;13.17;;;5.70;99.90;;;;;;10446508;28;20196;-79
2021/01/31 01:48:38;;;;;;;13.40;12.10;;;5.70;99.90;;;;;;10430914;28;20217;-78
2021/01/31 01:53:40;;;;;;;14.33;13.23;;;5.60;99.90;;;;;;10444766;28;20215;-78
2021/01/31 01:58:42;;;;;;;14.30;13.20;;;5.60;99.90;;;;;;10443903;28;20227;-79
2021/01/31 02:03:45;;;;;;;13.20;12.20;;;5.70;99.90;;;;;;10441895;28;20250;-78
2021/01/31 02:08:48;;;;;;;14.90;13.70;;;5.70;99.90;;;;;;10448076;28;20283;-79
2021/01/31 02:13:54;;;;;;;13.73;12.63;;;5.80;99.90;;;;;;10432865;28;20484;-79
2021/01/31 02:19:09;;;;;;;13.33;12.33;;;5.80;99.90;;;;;;10429642;28;20320;-79
2021/01/31 02:24:51;;;;;;;14.33;13.23;;;5.80;99.90;;;;;;10451241;28;20268;-79
2021/01/31 02:30:21;;;;;;;12.77;11.77;;;5.80;99.90;;;;;;10436774;28;20279;-79
2021/01/31 02:35:26;;;;;;;13.43;12.33;;;5.80;99.90;;;;;;10409481;28;20204;-79
2021/01/31 02:40:33;;;;;;;13.67;12.67;;;5.70;99.90;;;;;;10435029;28;20251;-79
2021/01/31 02:45:37;;;;;;;12.23;11.33;;;5.80;99.90;;;;;;10453418;28;20251;-78
2021/01/31 02:50:46;;;;;;;12.70;11.80;;;5.70;99.90;;;;;;10446317;28;20240;-78
2021/01/31 02:55:53;;;;;;;12.50;11.60;;;5.60;99.90;;;;;;10463698;28;20227;-79
2021/01/31 03:00:59;;;;;;;12.43;11.43;;;5.60;99.90;;;;;;10464742;28;20190;-78
2021/01/31 03:06:05;;;;;;;13.90;12.70;;;5.60;99.90;;;;;;10464038;28;20232;-78
2021/01/31 03:11:11;;;;;;;12.83;11.93;;;5.60;99.90;;;;;;10465024;28;20213;-79
2021/01/31 03:16:17;;;;;;;12.90;12.00;;;5.60;99.90;;;;;;10464464;28;20216;-78
2021/01/31 03:21:23;;;;;;;13.90;12.80;;;5.70;99.90;;;;;;10464459;28;20623;-78
2021/01/31 03:26:32;;;;;;;13.50;12.33;;;5.70;99.90;;;;;;10464183;28;20715;-78
2021/01/31 03:31:40;;;;;;;12.67;11.77;;;5.70;99.90;;;;;;10461020;28;20366;-80
2021/01/31 03:36:47;;;;;;;13.57;12.57;;;5.70;99.90;;;;;;10461057;28;20235;-81
2021/01/31 03:41:48;;;;;;;13.87;12.77;;;5.70;99.90;;;;;;10462888;28;20193;-80
2021/01/31 03:46:55;;;;;;;14.20;13.10;;;5.70;99.90;;;;;;10462111;28;20209;-80
2021/01/31 03:51:59;;;;;;;13.43;12.43;;;5.70;99.90;;;;;;10462836;28;20535;-81
2021/01/31 03:57:05;;;;;;;12.30;11.40;;;5.70;99.90;;;;;;10460811;28;20210;-81
2021/01/31 04:02:07;;;;;;;12.87;11.80;;;5.70;99.90;;;;;;10460901;28;20190;-81
2021/01/31 04:12:31;;;;;;;12.03;11.03;;;5.70;99.90;;;;;;10685041;22;20230;-80
2021/01/31 04:17:32;;;;;;;11.90;10.90;;;5.80;99.90;;;;;;10544662;28;20298;-80
2021/01/31 04:22:34;;;;;;;15.07;13.80;;;5.70;99.90;;;;;;10536416;28;20711;-79
2021/01/31 04:27:37;;;;;;;13.47;12.27;;;5.70;99.90;;;;;;10504506;28;20216;-80
2021/01/31 04:32:38;;;;;;;13.60;12.50;;;5.80;99.90;;;;;;10522395;28;20192;-80
2021/01/31 04:37:40;;;;;;;14.10;12.90;;;5.80;99.90;;;;;;10522093;28;20646;-79
2021/01/31 04:42:42;;;;;;;13.40;12.30;;;5.70;99.90;;;;;;10522567;28;20258;-79
2021/01/31 04:48:00;;;;;;;11.93;11.00;;;5.70;99.90;;;;;;10540866;28;20238;-79
2021/01/31 04:53:13;;;;;;;12.77;11.67;;;5.70;99.90;;;;;;10506698;28;20703;-80
2021/01/31 04:58:17;;;;;;;14.23;13.03;;;5.70;99.90;;;;;;10505381;28;20207;-80
2021/01/31 05:03:21;;;;;;;13.67;12.47;;;5.60;99.90;;;;;;10523438;28;20188;-80
2021/01/31 05:08:25;;;;;;;13.17;12.07;;;5.60;99.90;;;;;;10548422;28;20208;-80
2021/01/31 05:13:37;;;;;;;13.30;12.20;;;5.60;99.90;;;;;;10522189;28;20311;-80
2021/01/31 05:18:44;;;;;;;15.87;14.47;;;5.60;99.90;;;;;;10541149;28;20235;-79
2021/01/31 05:23:51;;;;;;;13.93;12.70;;;5.60;99.90;;;;;;10539658;28;20228;-80
2021/01/31 05:28:59;;;;;;;13.97;12.80;;;5.60;99.90;;;;;;10499893;23;20224;-83
2021/01/31 05:34:01;;;;;;;13.93;12.80;;;5.70;99.90;;;;;;10487375;28;20681;-84
2021/01/31 05:39:03;;;;;;;13.17;12.10;;;5.70;99.90;;;;;;10508642;28;20212;-83
2021/01/31 05:44:20;;;;;;;13.00;11.93;;;5.70;99.90;;;;;;10505305;28;20667;-81
2021/01/31 05:49:39;;;;;;;13.17;12.03;;;5.70;99.90;;;;;;10543068;28;20302;-83
2021/01/31 05:54:41;;;;;;;14.07;12.90;;;5.70;99.90;;;;;;10541642;28;20604;-83
2021/01/31 05:59:44;;;;;;;13.70;12.60;;;5.70;99.90;;;;;;10524428;28;20302;-83
2021/01/31 06:04:45;;;;;;;13.07;12.03;;;5.70;99.90;;;;;;10522034;28;20275;-83
2021/01/31 06:09:51;;;;;;;11.43;10.43;;;5.70;99.90;;;;;;10521647;28;20695;-83
2021/01/31 06:15:05;;;;;;;12.77;11.67;;;5.70;99.90;;;;;;10522261;28;20203;-83
2021/01/31 06:20:11;;;;;;;13.37;12.27;;;5.70;99.90;;;;;;10545121;28;20227;-84
2021/01/31 06:25:17;;;;;;;11.80;10.90;;;5.70;99.90;;;;;;10529257;28;20624;-83
2021/01/31 06:30:26;;;;;;;12.90;11.70;;;5.70;99.90;;;;;;10533951;28;20589;-82
2021/01/31 06:35:28;;;;;;;12.67;11.57;;;5.70;99.90;;;;;;10557898;28;20204;-82
2021/01/31 06:40:45;;;;;;;13.27;12.07;;;5.70;99.90;;;;;;10511578;28;20218;-84
2021/01/31 06:45:54;;;;;;;13.40;12.20;;;5.70;99.90;;;;;;10527874;28;20222;-84
2021/01/31 06:51:27;;;;;;;11.90;10.90;;;5.70;99.90;;;;;;10528030;28;20251;-84
2021/01/31 06:57:10;;;;;;;12.40;11.30;;;5.60;99.90;;;;;;10521743;28;20303;-83
2021/01/31 07:02:57;;;;;;;13.20;12.00;;;5.60;99.90;;;;;;10467098;28;20203;-83
2021/01/31 07:08:22;;;;;;;13.40;12.20;;;5.60;99.90;;;;;;10494912;28;20601;-82
2021/01/31 07:13:38;;;;;;;13.23;12.03;;;5.60;99.90;;;;;;10466371;28;20193;-84
2021/01/31 07:18:46;;;;;;;12.77;11.70;;;5.60;99.90;;;;;;10449362;28;20780;-84
2021/01/31 07:23:50;;;;;;;12.03;10.93;;;5.60;99.90;;;;;;10485822;28;20617;-83
2021/01/31 07:28:59;;;;;;;12.97;11.50;;;5.60;99.90;;;;;;10493199;28;20224;-83
2021/01/31 07:34:07;;;;;;;11.57;10.57;;;5.60;99.90;;;;;;10507480;28;20192;-82
2021/01/31 07:39:13;;;;;;;13.17;12.07;;;5.60;99.90;;;;;;10479127;28;20307;-84
2021/01/31 07:44:22;;;;;;;11.87;10.97;;;5.60;99.90;;;;;;10457615;28;20209;-83
2021/01/31 07:49:26;;;;;;;11.70;10.70;;;5.60;99.90;;;;;;10483771;28;20224;-83
2021/01/31 07:54:31;;;;;;;12.80;11.80;;;5.70;99.90;;;;;;10461446;28;20197;-84
2021/01/31 07:59:39;;;;;;;12.30;11.30;;;5.80;99.90;;;;;;10481115;28;20236;-85
2021/01/31 08:04:48;;;;;;;12.17;11.17;;;5.80;99.90;;;;;;10483015;28;20841;-81
2021/01/31 08:09:55;;;;;;;12.70;11.67;;;5.90;99.90;;;;;;10479342;28;20224;-82
2021/01/31 08:15:09;;;;;;;12.30;11.30;;;6.00;99.90;;;;;;10481926;28;20578;-82
2021/01/31 08:20:48;;;;;;;12.13;11.13;;;6.10;99.90;;;;;;10471096;28;20217;-82
2021/01/31 08:25:57;;;;;;;12.33;11.23;;;6.10;99.90;;;;;;10472392;28;20207;-81
2021/01/31 08:31:17;;;;;;;14.37;11.87;;;6.10;99.90;;;;;;10470528;28;20243;-80
2021/01/31 08:36:25;;;;;;;12.33;11.33;;;6.10;99.90;;;;;;10511147;28;20299;-81
2021/01/31 08:41:40;;;;;;;12.27;11.27;;;6.00;99.90;;;;;;10489859;28;20609;-82
2021/01/31 08:46:56;;;;;;;11.77;10.77;;;6.10;99.90;;;;;;10474305;28;20711;-80
2021/01/31 08:52:00;;;;;;;12.10;11.10;;;6.20;99.90;;;;;;10472845;28;20221;-84
2021/01/31 08:57:05;;;;;;;11.20;10.27;;;6.20;99.90;;;;;;10474404;28;20230;-82
2021/01/31 09:02:19;;;;;;;11.10;10.20;;;6.30;99.90;;;;;;10488368;28;20224;-82
2021/01/31 09:07:34;;;;;;;10.60;9.80;;;6.40;99.90;;;;;;10464263;28;20224;-81
2021/01/31 09:12:37;;;;;;;10.53;9.63;;;6.40;99.90;;;;;;10492330;28;20664;-80
2021/01/31 09:17:39;;;;;;;11.07;10.17;;;6.50;99.90;;;;;;10483855;28;20267;-82
2021/01/31 09:22:43;;;;;;;11.33;10.33;;;6.50;99.90;;;;;;10463121;28;20266;-80
2021/01/31 09:27:56;;;;;;;10.53;9.63;;;6.50;99.90;;;;;;10506412;28;20600;-79
2021/01/31 09:33:03;;;;;;;11.10;10.20;;;6.60;99.90;;;;;;10487640;28;20283;-80
2021/01/31 09:38:12;;;;;;;10.80;9.90;;;6.60;99.90;;;;;;10486212;28;20275;-80
2021/01/31 09:43:19;;;;;;;12.07;10.87;;;6.60;99.90;;;;;;10495878;28;20192;-78
2021/01/31 09:48:25;;;;;;;9.80;9.00;;;6.50;99.90;;;;;;10462581;28;20691;-77
2021/01/31 09:53:30;;;;;;;9.90;9.10;;;6.50;99.90;;;;;;10486701;28;20203;-80
2021/01/31 09:58:46;;;;;;;10.00;9.20;;;6.50;99.90;;;;;;10483179;28;20691;-79
2021/01/31 10:03:55;;;;;;;11.47;10.53;;;6.50;99.90;;;;;;10483638;28;20195;-81
2021/01/31 10:09:00;;;;;;;10.73;9.83;;;6.50;99.90;;;;;;10446104;28;20208;-81
2021/01/31 10:14:02;;;;;;;11.43;10.43;;;6.60;99.90;;;;;;10476717;28;20300;-80
2021/01/31 10:19:17;;;;;;;11.30;10.33;;;6.60;99.90;;;;;;10456498;28;20708;-81
2021/01/31 10:24:28;;;;;;;11.00;10.10;;;6.70;99.90;;;;;;10471838;28;20195;-81
2021/01/31 10:29:32;;;;;;;11.60;10.63;;;6.70;99.90;;;;;;10501094;28;20279;-81
2021/01/31 10:34:42;;;;;;;12.37;11.17;;;6.70;99.90;;;;;;10489817;28;20707;-81
2021/01/31 10:39:46;;;;;;;11.77;10.70;;;6.80;99.90;;;;;;10477392;28;20217;-81
2021/01/31 10:44:48;;;;;;;12.73;11.60;;;6.80;99.90;;;;;;10481096;28;20196;-81
2021/01/31 10:49:50;;;;;;;12.97;11.77;;;7.00;99.90;;;;;;10484614;28;20288;-83
2021/01/31 10:54:51;;;;;;;11.07;10.07;;;7.20;99.90;;;;;;10478893;28;20196;-82
2021/01/31 10:59:54;;;;;;;11.73;10.63;;;7.30;99.90;;;;;;10462891;28;20463;-83
2021/01/31 11:04:59;;;;;;;11.63;10.53;;;7.30;99.90;;;;;;10495151;28;20203;-81
2021/01/31 11:10:01;;;;;;;11.03;9.97;;;7.50;99.90;;;;;;10472214;28;20614;-83
2021/01/31 11:15:05;;;;;;;11.77;10.77;;;7.50;99.90;;;;;;10490729;28;20196;-83
2021/01/31 11:20:09;;;;;;;12.20;11.10;;;7.20;99.90;;;;;;10503063;28;20240;-83
2021/01/31 11:25:11;;;;;;;11.10;10.17;;;7.10;99.90;;;;;;10482544;28;20209;-83
2021/01/31 11:30:33;;;;;;;11.37;10.27;;;7.20;99.90;;;;;;10490012;28;20225;-84
2021/01/31 11:35:39;;;;;;;11.90;10.80;;;7.20;99.90;;;;;;10480633;28;20292;-82
2021/01/31 11:40:40;;;;;;;12.50;11.23;;;7.30;99.90;;;;;;10464809;28;20207;-83
2021/01/31 11:45:43;;;;;;;10.50;9.57;;;7.40;99.90;;;;;;10506363;28;20204;-83
2021/01/31 11:50:45;;;;;;;11.90;10.90;;;7.50;99.90;;;;;;10496570;28;20227;-82
2021/01/31 11:55:47;;;;;;;11.53;10.43;;;7.50;99.90;;;;;;10491285;28;20204;-82
2021/01/31 12:00:49;;;;;;;13.20;11.80;;;7.40;99.90;;;;;;10503785;28;20193;-82
2021/01/31 12:05:51;;;;;;;11.97;10.97;;;7.40;99.90;;;;;;10500843;28;20341;-82
2021/01/31 12:10:52;;;;;;;10.57;9.67;;;7.40;99.90;;;;;;10503854;28;20208;-82
2021/01/31 12:15:55;;;;;;;12.73;11.53;;;7.50;99.90;;;;;;10467380;28;20246;-82
2021/01/31 12:20:56;;;;;;;11.67;10.57;;;7.50;99.90;;;;;;10487469;28;20200;-82
2021/01/31 12:25:58;;;;;;;10.77;9.77;;;7.50;99.90;;;;;;10486307;28;20244;-82
2021/01/31 12:31:00;;;;;;;11.27;10.27;;;7.60;99.90;;;;;;10483496;28;20220;-82
2021/01/31 12:36:02;;;;;;;10.40;9.40;;;7.70;99.90;;;;;;10488174;28;20299;-83
2021/01/31 12:41:04;;;;;;;10.07;9.07;;;7.80;99.90;;;;;;10477255;28;20864;-83
2021/01/31 12:46:06;;;;;;;11.03;9.93;;;7.70;99.90;;;;;;10471359;28;20276;-83
2021/01/31 12:51:08;;;;;;;10.90;9.90;;;7.60;99.90;;;;;;10496108;28;20666;-84
2021/01/31 12:56:10;;;;;;;9.90;9.00;;;7.60;99.90;;;;;;10455939;28;20679;-81
2021/01/31 13:01:12;;;;;;;10.90;9.80;;;7.50;99.90;;;;;;10491187;28;20224;-82
2021/01/31 13:06:14;;;;;;;10.83;9.83;;;7.50;99.90;;;;;;10477580;28;20220;-82
2021/01/31 13:11:16;;;;;;;10.87;9.87;;;7.50;99.90;;;;;;10472426;28;20235;-82
2021/01/31 13:16:18;;;;;;;10.90;9.80;;;7.60;99.90;;;;;;10472934;28;20259;-82
2021/01/31 13:21:20;;;;;;;10.80;9.80;;;7.50;99.90;;;;;;10465997;28;20203;-82
2021/01/31 13:26:22;;;;;;;11.07;10.07;;;7.60;99.90;;;;;;10470890;28;20315;-82
2021/01/31 13:31:24;;;;;;;11.57;10.47;;;7.60;99.90;;;;;;10492991;28;20211;-83
2021/01/31 13:36:26;;;;;;;10.90;9.90;;;7.50;99.90;;;;;;10472708;28;20271;-83
2021/01/31 13:41:28;;;;;;;11.40;10.30;;;7.50;99.90;;;;;;10449055;28;20196;-82
2021/01/31 13:46:30;;;;;;;11.37;10.37;;;7.60;99.90;;;;;;10467404;28;20231;-83
2021/01/31 13:51:32;;;;;;;11.73;10.73;;;7.60;99.90;;;;;;10466091;28;20729;-83
2021/01/31 13:56:34;;;;;;;12.37;11.17;;;7.40;99.90;;;;;;10484868;28;20239;-82
2021/01/31 14:01:37;;;;;;;12.17;11.00;;;7.30;99.90;;;;;;10477305;28;20291;-82
2021/01/31 14:06:39;;;;;;;11.97;10.87;;;7.10;99.90;;;;;;10479170;28;20303;-82
2021/01/31 14:11:40;;;;;;;12.27;11.17;;;7.10;99.90;;;;;;10467310;28;20744;-83
2021/01/31 14:16:43;;;;;;;12.40;11.30;;;7.10;99.90;;;;;;10453345;28;20217;-83
2021/01/31 14:21:46;;;;;;;10.90;9.90;;;7.20;99.90;;;;;;10488802;28;20211;-83
2021/01/31 14:26:48;;;;;;;12.30;11.10;;;7.30;99.90;;;;;;10457852;28;20330;-82
2021/01/31 14:31:51;;;;;;;12.50;11.20;;;7.30;99.90;;;;;;10475290;28;20227;-83
2021/01/31 14:36:52;;;;;;;12.20;11.10;;;7.40;99.90;;;;;;10472778;28;20241;-83
2021/01/31 14:41:54;;;;;;;9.53;8.57;;;7.40;99.90;;;;;;10471100;28;20223;-82
2021/01/31 14:46:57;;;;;;;12.43;11.23;;;7.30;99.90;;;;;;10457182;28;20307;-83
2021/01/31 14:51:58;;;;;;;11.03;10.03;;;7.30;99.90;;;;;;10472934;28;20667;-83
2021/01/31 14:57:00;;;;;;;12.40;11.20;;;7.30;99.90;;;;;;10496313;28;20680;-82
2021/01/31 15:02:04;;;;;;;11.83;10.73;;;7.30;99.90;;;;;;10481500;28;20888;-84
2021/01/31 15:07:06;;;;;;;12.70;11.50;;;7.40;99.90;;;;;;10495367;28;20216;-83
2021/01/31 15:12:08;;;;;;;12.90;11.70;;;7.40;99.90;;;;;;10475554;28;20574;-82
2021/01/31 15:17:10;;;;;;;12.80;11.50;;;7.40;99.90;;;;;;10470250;28;20326;-83
2021/01/31 15:22:12;;;;;;;13.00;11.70;;;7.40;99.90;;;;;;10466578;28;20200;-82
2021/01/31 15:27:16;;;;;;;12.40;11.30;;;7.40;99.90;;;;;;10454851;28;20389;-82
2021/01/31 15:32:18;;;;;;;13.63;12.23;;;7.40;99.90;;;;;;10451078;28;20314;-82
2021/01/31 15:37:20;;;;;;;12.87;11.60;;;7.40;99.90;;;;;;10488563;28;20299;-82
2021/01/31 15:42:22;;;;;;;11.30;10.20;;;7.40;99.90;;;;;;10460411;28;20250;-81
2021/01/31 15:47:25;;;;;;;14.03;12.63;;;7.30;99.90;;;;;;10487938;28;20727;-83
2021/01/31 15:52:28;;;;;;;12.53;11.23;;;7.20;99.90;;;;;;10486521;28;20653;-82
2021/01/31 15:57:29;;;;;;;13.87;12.57;;;7.20;99.90;;;;;;10494641;28;20235;-83
2021/01/31 16:02:32;;;;;;;12.93;11.73;;;7.20;99.90;;;;;;10478496;28;20280;-85
2021/01/31 16:07:34;;;;;;;12.90;11.63;;;7.20;99.90;;;;;;10468055;28;20216;-81
2021/01/31 16:12:37;;;;;;;14.03;12.60;;;7.30;99.90;;;;;;10482130;28;20307;-83
2021/01/31 16:17:40;;;;;;;13.83;12.43;;;7.30;99.90;;;;;;10461331;28;20292;-83
2021/01/31 16:22:42;;;;;;;13.80;12.47;;;7.30;99.90;;;;;;10502135;28;20263;-82
2021/01/31 16:27:44;;;;;;;13.87;11.70;;;7.30;99.90;;;;;;10498470;28;20596;-84
2021/01/31 16:32:57;;;;;;;14.33;12.80;;;7.30;99.90;;;;;;10478037;28;20220;-84
2021/01/31 16:38:38;;;;;;;14.07;12.77;;;7.20;99.90;;;;;;10463245;28;20232;-83
2021/01/31 16:43:47;;;;;;;13.63;12.23;;;7.20;99.90;;;;;;10496106;28;20200;-84
2021/01/31 16:54:30;;;;;;;15.30;13.80;;;7.20;99.90;;;;;;10501491;28;20284;-83
2021/01/31 16:59:40;;;;;;;14.20;12.80;;;7.20;99.90;;;;;;10459276;28;20270;-81
2021/01/31 17:04:54;;;;;;;13.57;12.17;;;7.20;99.90;;;;;;10504854;28;20195;-83
2021/01/31 17:09:55;;;;;;;13.73;12.33;;;7.20;99.90;;;;;;10485618;28;20236;-83
2021/01/31 17:14:57;;;;;;;14.80;13.37;;;7.20;99.90;;;;;;10490384;28;20254;-84
2021/01/31 17:20:00;;;;;;;13.70;12.37;;;7.20;99.90;;;;;;10502840;28;20239;-82
2021/01/31 17:25:01;;;;;;;11.80;10.67;;;7.20;99.90;;;;;;10474875;28;20203;-80
2021/01/31 17:30:09;;;;;;;13.30;11.90;;;7.20;99.90;;;;;;10482767;28;20323;-81
2021/01/31 17:35:12;;;;;;;13.60;12.30;;;7.20;99.90;;;;;;10515714;23;20221;-78
2021/01/31 17:40:15;;;;;;;13.40;12.00;;;7.20;99.90;;;;;;10497275;28;20254;-78
2021/01/31 17:45:19;;;;;;;14.97;13.27;;;7.10;99.90;;;;;;10477890;28;20315;-78
2021/01/31 17:50:28;;;;;;;14.33;12.83;;;7.10;99.90;;;;;;10478234;28;20622;-78
2021/01/31 17:55:29;;;;;;;14.30;12.80;;;7.10;99.90;;;;;;10462556;28;20247;-78
2021/01/31 18:00:31;;;;;;;14.73;13.00;;;7.10;99.90;;;;;;10477942;28;20222;-78
2021/01/31 18:05:34;;;;;;;17.87;16.00;;;7.10;99.90;;;;;;10465093;28;20229;-78
2021/01/31 18:10:36;;;;;;;17.57;15.13;;;7.10;99.90;;;;;;10472749;28;20224;-78
2021/01/31 18:15:38;;;;;;;16.90;15.17;;;7.10;99.90;;;;;;10474547;28;20305;-78
2021/01/31 18:20:40;;;;;;;17.20;15.40;;;7.10;99.90;;;;;;10483920;28;20199;-78
2021/01/31 18:25:42;;;;;;;17.53;15.33;;;7.00;99.90;;;;;;10483110;28;20302;-78
2021/01/31 18:30:44;;;;;;;17.90;16.10;;;7.00;99.90;;;;;;10485759;28;20223;-78
2021/01/31 18:35:46;;;;;;;16.30;14.70;;;7.00;99.90;;;;;;10491882;28;20321;-78
2021/01/31 18:40:48;;;;;;;16.87;15.20;;;7.00;99.90;;;;;;10501844;28;20286;-78
2021/01/31 18:45:50;;;;;;;19.73;17.60;;;7.00;99.90;;;;;;10568735;22;20251;-78
2021/01/31 18:50:53;;;;;;;17.27;15.57;;;6.90;99.90;;;;;;10518568;28;20222;-77
2021/01/31 18:55:54;;;;;;;15.57;14.03;;;6.90;99.90;;;;;;10474863;22;20742;-78
2021/01/31 19:00:56;;;;;;;18.10;16.20;;;7.00;99.90;;;;;;10461775;28;20293;-77
2021/01/31 19:05:58;;;;;;;17.60;15.80;;;7.00;99.90;;;;;;10427344;28;20220;-78
2021/01/31 19:11:00;;;;;;;17.70;15.80;;;7.00;99.90;;;;;;10422440;28;20700;-78
2021/01/31 19:16:02;;;;;;;17.60;14.80;;;7.00;99.90;;;;;;10422849;28;20249;-77
2021/01/31 19:21:05;;;;;;;16.80;15.00;;;7.00;99.90;;;;;;10423863;28;20391;-78
2021/01/31 19:26:07;;;;;;;18.33;15.90;;;7.00;99.90;;;;;;10434086;28;20744;-77
2021/01/31 19:31:09;;;;;;;16.13;14.53;;;6.90;99.90;;;;;;10422785;28;20629;-78
2021/01/31 19:36:11;;;;;;;16.83;15.03;;;6.90;99.90;;;;;;10441556;28;20197;-77
2021/01/31 19:41:13;;;;;;;18.40;16.40;;;6.90;99.90;;;;;;10424547;28;20225;-77
2021/01/31 19:46:15;;;;;;;19.10;17.10;;;6.80;99.90;;;;;;10428565;28;20284;-77
2021/01/31 19:51:18;;;;;;;16.80;14.90;;;6.80;99.90;;;;;;10425521;28;20971;-77
2021/01/31 19:56:22;;;;;;;15.60;14.10;;;6.80;99.90;;;;;;10434028;28;20265;-77
2021/01/31 20:01:28;;;;;;;18.47;16.57;;;6.70;99.90;;;;;;10443246;28;20209;-77
2021/01/31 20:06:31;;;;;;;15.67;14.17;;;6.70;99.90;;;;;;10442013;28;20201;-78
2021/01/31 20:11:32;;;;;;;15.90;14.30;;;6.70;99.90;;;;;;10433139;28;20242;-78
2021/01/31 20:16:34;;;;;;;15.10;13.47;;;6.70;99.90;;;;;;10427227;28;20204;-77
2021/01/31 20:21:37;;;;;;;16.53;14.73;;;6.70;99.90;;;;;;10432324;28;20255;-77
2021/01/31 20:26:38;;;;;;;17.73;15.13;;;6.70;99.90;;;;;;10434160;28;20216;-78
2021/01/31 20:31:40;;;;;;;17.07;15.27;;;6.70;99.90;;;;;;10434037;28;20755;-77
2021/01/31 20:36:43;;;;;;;15.37;13.87;;;6.70;99.90;;;;;;10454847;28;20205;-77
2021/01/31 20:41:44;;;;;;;16.53;14.80;;;6.70;99.90;;;;;;10408676;28;20221;-77
2021/01/31 20:46:47;;;;;;;16.30;14.77;;;6.70;99.90;;;;;;10431223;28;20626;-77
2021/01/31 20:51:49;;;;;;;17.40;15.10;;;6.70;99.90;;;;;;10419601;28;20221;-77
2021/01/31 20:56:51;;;;;;;15.50;14.00;;;6.80;99.90;;;;;;10423108;28;20233;-77
2021/01/31 21:01:52;;;;;;;16.03;14.40;;;6.80;99.90;;;;;;10433552;28;20205;-77
2021/01/31 21:06:55;;;;;;;16.40;14.73;;;6.80;99.90;;;;;;10421346;28;20276;-77
2021/01/31 21:11:57;;;;;;;18.30;16.50;;;6.80;99.90;;;;;;10422095;28;20320;-77
2021/01/31 21:16:58;;;;;;;15.73;14.13;;;6.80;99.90;;;;;;10423606;28;20272;-77
2021/01/31 21:36:20;;;;;;;14.80;13.20;;;6.90;99.90;;;;;;10004634;28;20226;-77
2021/01/31 21:41:22;;;;;;;15.47;13.40;;;6.90;99.90;;;;;;10298154;28;20230;-77
2021/01/31 21:46:23;;;;;;;16.03;14.37;;;6.90;99.90;;;;;;10336882;28;20285;-78
2021/01/31 21:51:26;;;;;;;16.37;14.67;;;6.80;99.90;;;;;;10337969;28;20740;-77
2021/01/31 21:56:28;;;;;;;15.27;13.77;;;6.70;99.90;;;;;;10338916;28;20254;-77
2021/01/31 22:01:32;;;;;;;12.93;11.63;;;6.80;99.90;;;;;;10337492;28;20214;-77
2021/01/31 22:06:35;;;;;;;13.30;12.03;;;6.80;99.90;;;;;;10344455;28;20205;-77
2021/01/31 22:11:37;;;;;;;15.50;13.90;;;6.80;99.90;;;;;;10354965;28;20223;-77
2021/01/31 22:16:38;;;;;;;16.70;15.00;;;6.70;99.90;;;;;;10343354;28;20203;-77
2021/01/31 22:21:43;;;;;;;14.63;13.27;;;6.70;99.90;;;;;;10362467;28;20194;-77
2021/01/31 22:26:44;;;;;;;15.40;13.80;;;6.70;99.90;;;;;;10375516;28;20250;-77
2021/01/31 22:37:04;;;;;;;16.40;14.70;;;6.80;99.90;;;;;;4334735;26;20236;-79
2021/01/31 22:42:06;;;;;;;15.90;14.30;;;6.80;99.90;;;;;;10525393;28;20219;-79
2021/01/31 22:47:07;;;;;;;15.80;14.20;;;6.80;99.90;;;;;;10514448;28;20649;-79
2021/01/31 22:52:10;;;;;;;15.53;13.83;;;6.80;99.90;;;;;;10507481;28;20699;-79
2021/01/31 22:57:11;;;;;;;14.60;13.10;;;6.90;99.90;;;;;;10517763;28;20699;-79
2021/01/31 23:02:13;;;;;;;15.30;13.20;;;6.90;99.90;;;;;;10517084;28;20612;-79
2021/01/31 23:07:15;;;;;;;13.97;12.53;;;6.90;99.90;;;;;;10529325;28;20197;-79
2021/01/31 23:12:17;;;;;;;14.63;12.07;;;6.90;99.90;;;;;;10519960;28;20254;-79
2021/01/31 23:17:19;;;;;;;15.33;12.73;;;6.90;99.90;;;;;;10515147;28;20675;-79
2021/01/31 23:22:21;;;;;;;13.60;12.27;;;6.90;99.90;;;;;;10513883;28;20212;-80
2021/01/31 23:27:23;;;;;;;13.43;12.03;;;6.90;99.90;;;;;;10520824;28;20197;-79
2021/01/31 23:32:24;;;;;;;14.90;13.37;;;6.90;99.90;;;;;;10587945;22;20232;-79
2021/01/31 23:37:27;;;;;;;14.80;13.30;;;6.90;99.90;;;;;;10533169;28;20227;-79
2021/01/31 23:42:28;;;;;;;14.37;12.87;;;6.90;99.90;;;;;;10534844;28;20299;-79
2021/01/31 23:47:30;;;;;;;13.70;12.33;;;6.80;99.90;;;;;;10532369;28;20192;-80
2021/01/31 23:52:33;;;;;;;14.17;12.70;;;6.80;99.90;;;;;;10510508;28;20228;-79
2021/01/31 23:57:34;;;;;;;14.00;12.53;;;6.80;99.90;;;;;;10528426;28;20192;-79
